FDX9900 KMEM-KIND
Flight info
| Callsign | FDX9900 |
|---|---|
| Flight time | N/A |
| Altitude | 41000 |
| Route | CRSON7 HUMMS PXV EMBRR SMUKE3 |
| Aircraft | B77L/H-SDE1E2E3FGHIJ2J3J4J5M1RWXY/LB1D1 |
Departure
| Time | 2026-05-07 18:33 |
|---|---|
| Airport | Memphis International Airport (KMEM) |
Arrival
| Time | N/A |
|---|---|
| Airport | Indianapolis International Airport (KIND) |
| Time | Latitude | Longitude | Altitude | Speed | Heading |
|---|---|---|---|---|---|
| 2026-05-07 18:16 | 35.06103 | -89.96373 | 309 ft | 0 kts | 359° |
| 2026-05-07 18:22 | 35.06092 | -89.96373 | 309 ft | 3 kts | 4° |
| 2026-05-07 18:23 | 35.06076 | -89.96374 | 309 ft | 2 kts | 1° |
| 2026-05-07 18:23 | 35.06058 | -89.96373 | 312 ft | 3 kts | 330° |
| 2026-05-07 18:23 | 35.06047 | -89.96359 | 311 ft | 9 kts | 281° |
| 2026-05-07 18:23 | 35.06045 | -89.96335 | 312 ft | 3 kts | 270° |
| 2026-05-07 18:24 | 35.06045 | -89.96323 | 310 ft | 2 kts | 272° |
| 2026-05-07 18:24 | 35.06045 | -89.96322 | 311 ft | 3 kts | 272° |
| 2026-05-07 18:24 | 35.06045 | -89.96321 | 311 ft | 0 kts | 272° |
| 2026-05-07 18:26 | 35.06047 | -89.96374 | 313 ft | 15 kts | 272° |
| 2026-05-07 18:26 | 35.06018 | -89.96490 | 314 ft | 17 kts | 225° |
| 2026-05-07 18:26 | 35.05929 | -89.96587 | 315 ft | 18 kts | 245° |
| 2026-05-07 18:27 | 35.05921 | -89.96752 | 314 ft | 21 kts | 271° |
| 2026-05-07 18:27 | 35.05926 | -89.96929 | 312 ft | 21 kts | 272° |
| 2026-05-07 18:27 | 35.05932 | -89.97118 | 309 ft | 24 kts | 271° |
| 2026-05-07 18:27 | 35.05938 | -89.97325 | 313 ft | 24 kts | 272° |
| 2026-05-07 18:28 | 35.05903 | -89.97489 | 314 ft | 19 kts | 201° |
| 2026-05-07 18:28 | 35.05736 | -89.97487 | 312 ft | 32 kts | 181° |
| 2026-05-07 18:28 | 35.05525 | -89.97483 | 327 ft | 30 kts | 177° |
| 2026-05-07 18:28 | 35.05309 | -89.97481 | 324 ft | 33 kts | 180° |
| 2026-05-07 18:29 | 35.05077 | -89.97474 | 321 ft | 34 kts | 181° |
| 2026-05-07 18:29 | 35.04832 | -89.97470 | 320 ft | 36 kts | 178° |
| 2026-05-07 18:29 | 35.04599 | -89.97466 | 320 ft | 33 kts | 179° |
| 2026-05-07 18:29 | 35.04365 | -89.97461 | 321 ft | 34 kts | 179° |
| 2026-05-07 18:30 | 35.04124 | -89.97456 | 317 ft | 36 kts | 179° |
| 2026-05-07 18:30 | 35.03885 | -89.97450 | 317 ft | 34 kts | 178° |
| 2026-05-07 18:30 | 35.03637 | -89.97445 | 310 ft | 37 kts | 179° |
| 2026-05-07 18:30 | 35.03385 | -89.97441 | 307 ft | 38 kts | 178° |
| 2026-05-07 18:31 | 35.03129 | -89.97435 | 309 ft | 34 kts | 179° |
| 2026-05-07 18:31 | 35.02896 | -89.97430 | 304 ft | 34 kts | 179° |
| 2026-05-07 18:31 | 35.02677 | -89.97426 | 305 ft | 28 kts | 179° |
| 2026-05-07 18:31 | 35.02506 | -89.97422 | 301 ft | 24 kts | 177° |
| 2026-05-07 18:32 | 35.02422 | -89.97478 | 300 ft | 15 kts | 257° |
| 2026-05-07 18:32 | 35.02504 | -89.97556 | 303 ft | 30 kts | 356° |
| 2026-05-07 18:32 | 35.03021 | -89.97568 | 305 ft | 123 kts | 359° |
| 2026-05-07 18:32 | 35.04066 | -89.97576 | 824 ft | 152 kts | 357° |
| 2026-05-07 18:33 | 35.05082 | -89.97594 | 2089 ft | 150 kts | 0° |
| 2026-05-07 18:33 | 35.06141 | -89.97624 | 3239 ft | 148 kts | 359° |
| 2026-05-07 18:33 | 35.07206 | -89.97640 | 4272 ft | 153 kts | 358° |
| 2026-05-07 18:33 | 35.08261 | -89.97658 | 5419 ft | 154 kts | 0° |
| 2026-05-07 18:34 | 35.09301 | -89.97344 | 6587 ft | 162 kts | 13° |
| 2026-05-07 18:34 | 35.10502 | -89.96934 | 7261 ft | 197 kts | 8° |
| 2026-05-07 18:34 | 35.11978 | -89.96518 | 7731 ft | 240 kts | 6° |
| 2026-05-07 18:34 | 35.13760 | -89.96071 | 8302 ft | 277 kts | 4° |
| 2026-05-07 18:35 | 35.15680 | -89.95615 | 9681 ft | 284 kts | 1° |